Time;durP1;ratioP1;P1;durP2;ratioP2;P2;SDS_P1;SDS_P2;PMS_P1;PMS_P2;Temp;Humidity;BMP_temperature;BMP_pressure;BME280_temperature;BME280_humidity;BME280_pressure;Samples;Min_cycle;Max_cycle;Signal;HPM_P1;HPM_P2
2022/10/11 00:00:06;;;;;;;2.02;1.25;;;;;;;;;;1913486;73;27415;-89
2022/10/11 00:02:34;;;;;;;1.10;1.10;;;;;;;;;;1890833;75;26261;-88
2022/10/11 00:05:01;;;;;;;1.20;1.20;;;;;;;;;;1906744;75;26820;-88
2022/10/11 00:07:28;;;;;;;1.25;1.15;;;;;;;;;;1920833;73;26415;-89
2022/10/11 00:09:56;;;;;;;1.30;1.30;;;;;;;;;;1914696;73;26314;-88
2022/10/11 00:12:23;;;;;;;1.02;1.00;;;;;;;;;;1938858;73;27074;-88
2022/10/11 00:14:50;;;;;;;1.22;1.07;;;;;;;;;;1933495;73;26342;-89
2022/10/11 00:17:18;;;;;;;1.50;1.10;;;;;;;;;;1912293;74;26266;-89
2022/10/11 00:19:45;;;;;;;1.20;1.20;;;;;;;;;;1899286;73;26287;-89
2022/10/11 00:22:12;;;;;;;1.40;1.20;;;;;;;;;;1913357;74;26360;-89
2022/10/11 00:24:39;;;;;;;1.20;1.20;;;;;;;;;;1913493;73;26195;-89
2022/10/11 00:27:07;;;;;;;1.17;1.17;;;;;;;;;;1914687;75;26318;-89
2022/10/11 00:29:34;;;;;;;1.10;1.10;;;;;;;;;;1883513;75;26252;-89
2022/10/11 00:32:01;;;;;;;1.10;1.10;;;;;;;;;;1919123;74;26279;-89
2022/10/11 00:34:29;;;;;;;1.12;1.12;;;;;;;;;;1913135;75;26267;-91
2022/10/11 00:36:56;;;;;;;1.10;1.10;;;;;;;;;;1897628;75;26283;-89
2022/10/11 00:39:23;;;;;;;1.20;1.20;;;;;;;;;;1908989;74;26250;-89
2022/10/11 00:41:50;;;;;;;1.30;1.30;;;;;;;;;;1910618;75;26237;-89
2022/10/11 00:44:19;;;;;;;1.10;1.10;;;;;;;;;;1894739;75;26382;-91
2022/10/11 00:46:51;;;;;;;1.12;1.12;;;;;;;;;;1896272;75;26334;-90
2022/10/11 00:49:29;;;;;;;1.20;1.20;;;;;;;;;;1911039;75;26853;-89
2022/10/11 00:51:58;;;;;;;1.00;1.00;;;;;;;;;;1897462;75;26317;-91
2022/10/11 00:54:26;;;;;;;1.17;1.17;;;;;;;;;;1896199;75;26344;-89
2022/10/11 00:56:55;;;;;;;1.00;1.00;;;;;;;;;;1910104;75;26623;-92
2022/10/11 00:59:24;;;;;;;1.20;1.20;;;;;;;;;;1890884;75;26199;-90
2022/10/11 01:01:52;;;;;;;1.20;1.20;;;;;;;;;;1894566;75;26303;-89
2022/10/11 01:04:19;;;;;;;0.90;0.90;;;;;;;;;;1912748;75;26359;-89
2022/10/11 01:06:47;;;;;;;1.00;1.00;;;;;;;;;;1912594;75;26289;-90
2022/10/11 01:09:15;;;;;;;1.10;1.10;;;;;;;;;;1891082;75;26194;-93
2022/10/11 01:11:43;;;;;;;1.15;1.15;;;;;;;;;;1910723;75;26183;-90
2022/10/11 01:14:12;;;;;;;1.00;1.00;;;;;;;;;;1901939;75;26330;-89
2022/10/11 01:16:43;;;;;;;1.10;1.10;;;;;;;;;;1911448;75;26266;-89
2022/10/11 01:19:21;;;;;;;1.00;1.00;;;;;;;;;;1892155;75;26247;-89
2022/10/11 01:21:49;;;;;;;1.10;1.10;;;;;;;;;;1909912;75;26296;-88
2022/10/11 01:24:27;;;;;;;1.07;1.07;;;;;;;;;;1905300;75;27013;-89
2022/10/11 01:26:59;;;;;;;1.02;1.02;;;;;;;;;;1913378;75;26340;-89
2022/10/11 01:29:40;;;;;;;1.10;1.10;;;;;;;;;;1864326;75;26338;-88
2022/10/11 01:32:09;;;;;;;1.12;1.12;;;;;;;;;;1860847;76;26278;-89
2022/10/11 01:34:47;;;;;;;1.00;1.00;;;;;;;;;;1859339;76;26217;-89
2022/10/11 01:37:19;;;;;;;1.00;1.00;;;;;;;;;;1826522;76;26211;-90
2022/10/11 01:39:47;;;;;;;1.00;1.00;;;;;;;;;;1825321;77;26284;-89
2022/10/11 01:42:16;;;;;;;1.00;1.00;;;;;;;;;;1803125;79;26208;-89
2022/10/11 01:44:45;;;;;;;1.20;1.02;;;;;;;;;;1802225;78;26408;-89
2022/10/11 01:47:13;;;;;;;1.00;1.00;;;;;;;;;;1837300;78;26208;-90
2022/10/11 01:49:40;;;;;;;1.20;1.20;;;;;;;;;;1803797;79;26736;-89
2022/10/11 01:52:08;;;;;;;1.20;1.20;;;;;;;;;;1867493;76;26296;-91
2022/10/11 01:54:36;;;;;;;1.02;1.02;;;;;;;;;;1865901;77;26666;-90
2022/10/11 01:57:14;;;;;;;0.95;0.95;;;;;;;;;;1853316;76;26735;-90
2022/10/11 01:59:43;;;;;;;1.10;1.10;;;;;;;;;;1859217;76;26252;-89
2022/10/11 02:02:12;;;;;;;1.10;1.10;;;;;;;;;;1869011;76;26274;-89
2022/10/11 02:04:50;;;;;;;0.90;0.90;;;;;;;;;;1869518;76;26270;-88
2022/10/11 02:07:24;;;;;;;1.10;1.10;;;;;;;;;;1845920;77;26288;-86
2022/10/11 02:10:05;;;;;;;1.00;1.00;;;;;;;;;;1856197;77;26655;-89
2022/10/11 02:12:34;;;;;;;1.10;1.10;;;;;;;;;;1869202;76;26793;-88
2022/10/11 02:15:02;;;;;;;2.05;1.02;;;;;;;;;;1864311;76;26706;-88
2022/10/11 02:17:34;;;;;;;1.10;1.10;;;;;;;;;;1867615;76;26307;-86
2022/10/11 02:20:02;;;;;;;1.00;1.00;;;;;;;;;;1866836;77;26226;-90
2022/10/11 02:22:31;;;;;;;1.00;1.00;;;;;;;;;;1844521;76;26312;-89
2022/10/11 02:25:00;;;;;;;1.00;1.00;;;;;;;;;;1867741;77;26225;-89
2022/10/11 02:27:29;;;;;;;1.00;1.00;;;;;;;;;;1854919;76;26238;-90
2022/10/11 02:29:58;;;;;;;1.20;1.20;;;;;;;;;;1863093;76;26407;-90
2022/10/11 02:32:25;;;;;;;1.98;0.80;;;;;;;;;;1859765;76;26293;-90
2022/10/11 02:34:57;;;;;;;1.00;1.00;;;;;;;;;;1868277;76;26198;-88
2022/10/11 02:37:32;;;;;;;1.00;1.00;;;;;;;;;;1858012;77;26250;-89
2022/10/11 02:40:13;;;;;;;0.93;0.93;;;;;;;;;;1838295;76;26320;-88
2022/10/11 02:42:45;;;;;;;1.22;1.00;;;;;;;;;;1856275;76;27362;-90
2022/10/11 02:45:20;;;;;;;1.10;1.10;;;;;;;;;;1849257;76;26320;-88
2022/10/11 02:47:48;;;;;;;1.10;1.10;;;;;;;;;;1852949;76;26263;-88
2022/10/11 02:50:15;;;;;;;1.10;1.10;;;;;;;;;;1861840;76;26691;-88
2022/10/11 02:52:43;;;;;;;1.07;1.07;;;;;;;;;;1869646;76;26314;-89
2022/10/11 02:55:10;;;;;;;1.00;1.00;;;;;;;;;;1872191;76;26215;-88
2022/10/11 02:57:38;;;;;;;1.02;1.02;;;;;;;;;;1865174;76;26699;-89
2022/10/11 03:00:06;;;;;;;1.00;1.00;;;;;;;;;;1860228;76;26319;-88
2022/10/11 03:02:33;;;;;;;0.93;0.93;;;;;;;;;;1851813;77;26249;-90
2022/10/11 03:05:00;;;;;;;0.80;0.80;;;;;;;;;;1860333;76;26278;-93
2022/10/11 03:07:27;;;;;;;1.00;1.00;;;;;;;;;;1874497;76;26738;-88
2022/10/11 03:09:54;;;;;;;1.10;1.10;;;;;;;;;;1872561;76;26853;-88
2022/10/11 03:12:22;;;;;;;1.00;1.00;;;;;;;;;;1875134;76;26744;-88
2022/10/11 03:14:49;;;;;;;1.10;1.10;;;;;;;;;;1874268;76;26821;-88
2022/10/11 03:17:16;;;;;;;1.75;0.95;;;;;;;;;;1857695;76;26296;-88
2022/10/11 03:19:43;;;;;;;1.00;0.90;;;;;;;;;;1864168;76;26154;-90
2022/10/11 03:22:11;;;;;;;1.07;1.07;;;;;;;;;;1874609;76;26232;-88
2022/10/11 03:24:38;;;;;;;0.90;0.90;;;;;;;;;;1868738;76;26243;-88
2022/10/11 03:27:05;;;;;;;0.90;0.90;;;;;;;;;;1866525;76;26332;-90
2022/10/11 03:29:32;;;;;;;0.90;0.90;;;;;;;;;;1876804;75;26294;-89
2022/10/11 03:32:00;;;;;;;1.07;1.07;;;;;;;;;;1903322;75;26194;-88
2022/10/11 03:34:27;;;;;;;1.00;1.00;;;;;;;;;;1900793;74;26774;-88
2022/10/11 03:36:55;;;;;;;1.10;1.10;;;;;;;;;;1910868;75;26325;-87
2022/10/11 03:39:22;;;;;;;1.05;1.02;;;;;;;;;;1911668;75;26246;-88
2022/10/11 03:41:49;;;;;;;0.80;0.80;;;;;;;;;;1913056;75;26295;-87
2022/10/11 03:44:16;;;;;;;0.98;0.98;;;;;;;;;;1912287;75;26277;-88
2022/10/11 03:46:44;;;;;;;1.10;1.10;;;;;;;;;;1909129;74;26804;-89
2022/10/11 03:49:12;;;;;;;0.90;0.90;;;;;;;;;;1905755;74;27572;-91
2022/10/11 03:51:40;;;;;;;0.90;0.90;;;;;;;;;;1880998;75;26765;-90
2022/10/11 03:54:07;;;;;;;0.90;0.90;;;;;;;;;;1893400;75;26880;-90
2022/10/11 03:56:34;;;;;;;1.45;1.00;;;;;;;;;;1904362;75;26230;-89
2022/10/11 03:59:02;;;;;;;0.80;0.80;;;;;;;;;;1886449;75;26417;-90
2022/10/11 04:01:29;;;;;;;1.00;1.00;;;;;;;;;;1885706;75;26349;-90
2022/10/11 04:03:57;;;;;;;0.80;0.80;;;;;;;;;;1891959;75;26688;-89
2022/10/11 04:06:24;;;;;;;0.90;0.90;;;;;;;;;;1882745;75;26258;-89
2022/10/11 04:08:51;;;;;;;0.85;0.85;;;;;;;;;;1896343;75;26319;-89
2022/10/11 04:11:18;;;;;;;0.90;0.90;;;;;;;;;;1895160;75;26706;-89
2022/10/11 04:13:46;;;;;;;0.88;0.88;;;;;;;;;;1899393;75;26326;-89
2022/10/11 04:16:13;;;;;;;1.00;1.00;;;;;;;;;;1884001;75;26343;-90
2022/10/11 04:18:40;;;;;;;0.80;0.80;;;;;;;;;;1902430;75;26226;-92
2022/10/11 04:21:08;;;;;;;1.00;0.80;;;;;;;;;;1894959;75;26244;-89
2022/10/11 04:23:35;;;;;;;0.88;0.88;;;;;;;;;;1904184;75;26242;-88
2022/10/11 04:26:05;;;;;;;0.90;0.90;;;;;;;;;;1903913;75;26250;-90
2022/10/11 04:28:33;;;;;;;0.90;0.90;;;;;;;;;;1895436;75;26770;-88
2022/10/11 04:31:03;;;;;;;0.90;0.90;;;;;;;;;;1874321;75;26661;-89
2022/10/11 04:33:29;;;;;;;0.80;0.80;;;;;;;;;;1884793;75;26579;-89
2022/10/11 04:35:57;;;;;;;0.78;0.78;;;;;;;;;;1894990;75;26194;-89
2022/10/11 04:38:24;;;;;;;0.82;0.82;;;;;;;;;;1872284;77;26569;-88
2022/10/11 04:40:51;;;;;;;1.65;0.90;;;;;;;;;;1893930;75;26832;-88
2022/10/11 04:43:18;;;;;;;1.05;0.88;;;;;;;;;;1909770;75;26175;-91
2022/10/11 04:45:46;;;;;;;1.85;1.00;;;;;;;;;;1903672;75;26246;-91
2022/10/11 04:48:13;;;;;;;1.77;0.90;;;;;;;;;;1897322;75;26272;-90
2022/10/11 04:50:40;;;;;;;0.93;0.93;;;;;;;;;;1906713;75;26291;-90
2022/10/11 04:53:08;;;;;;;0.85;0.80;;;;;;;;;;1902469;75;26757;-90
2022/10/11 04:55:35;;;;;;;0.80;0.80;;;;;;;;;;1905723;75;26257;-87
2022/10/11 04:58:02;;;;;;;0.80;0.80;;;;;;;;;;1905738;75;26334;-86
2022/10/11 05:00:29;;;;;;;0.90;0.90;;;;;;;;;;1885811;75;26849;-90
2022/10/11 05:02:57;;;;;;;0.95;0.90;;;;;;;;;;1894930;75;26279;-92
2022/10/11 05:05:24;;;;;;;0.82;0.82;;;;;;;;;;1904794;75;26355;-91
2022/10/11 05:07:51;;;;;;;0.72;0.72;;;;;;;;;;1894807;75;26287;-89
2022/10/11 05:10:19;;;;;;;2.08;0.90;;;;;;;;;;1903670;75;26279;-90
2022/10/11 05:12:46;;;;;;;1.05;0.90;;;;;;;;;;1904687;75;26300;-91
2022/10/11 05:15:13;;;;;;;2.60;0.90;;;;;;;;;;1903853;75;26279;-90
2022/10/11 05:17:40;;;;;;;2.25;0.80;;;;;;;;;;1904285;75;26287;-90
2022/10/11 05:20:08;;;;;;;1.20;1.10;;;;;;;;;;1894706;75;26266;-93
2022/10/11 05:22:36;;;;;;;1.40;0.80;;;;;;;;;;1898262;75;26752;-89
2022/10/11 05:25:03;;;;;;;2.05;0.90;;;;;;;;;;1900969;75;26249;-90
2022/10/11 05:27:30;;;;;;;1.90;1.00;;;;;;;;;;1900027;75;26695;-90
2022/10/11 05:29:57;;;;;;;2.50;1.10;;;;;;;;;;1879522;75;26346;-90
2022/10/11 05:32:25;;;;;;;2.02;1.00;;;;;;;;;;1904850;75;26353;-89
2022/10/11 05:34:52;;;;;;;3.83;1.20;;;;;;;;;;1878662;75;26270;-89
2022/10/11 05:37:20;;;;;;;1.77;1.10;;;;;;;;;;1893835;75;26775;-92
2022/10/11 05:39:47;;;;;;;4.17;1.20;;;;;;;;;;1899049;75;26238;-88
2022/10/11 05:42:14;;;;;;;7.58;1.30;;;;;;;;;;1904750;75;26281;-89
2022/10/11 05:44:41;;;;;;;3.25;1.30;;;;;;;;;;1901529;75;26825;-88
2022/10/11 05:47:09;;;;;;;1.90;1.27;;;;;;;;;;1893675;75;26650;-89
2022/10/11 05:49:36;;;;;;;6.37;1.30;;;;;;;;;;1900811;75;26254;-89
2022/10/11 05:52:05;;;;;;;1.20;1.10;;;;;;;;;;1877499;75;26233;-90
2022/10/11 05:54:32;;;;;;;2.87;1.30;;;;;;;;;;1875476;75;26318;-90
2022/10/11 05:57:00;;;;;;;3.17;1.20;;;;;;;;;;1886122;75;26327;-91
2022/10/11 05:59:27;;;;;;;3.10;1.75;;;;;;;;;;1905450;75;26336;-90
2022/10/11 06:01:54;;;;;;;4.17;1.50;;;;;;;;;;1895117;75;26211;-90
2022/10/11 06:04:22;;;;;;;2.72;1.17;;;;;;;;;;1901107;75;26376;-93
2022/10/11 06:06:49;;;;;;;3.05;1.10;;;;;;;;;;1877664;75;26277;-93
2022/10/11 06:09:16;;;;;;;2.55;1.10;;;;;;;;;;1886198;75;26368;-94
2022/10/11 06:11:44;;;;;;;2.02;1.20;;;;;;;;;;1882699;75;26271;-92
2022/10/11 06:14:12;;;;;;;3.83;1.35;;;;;;;;;;1896595;75;26361;-92
2022/10/11 06:16:39;;;;;;;3.00;1.00;;;;;;;;;;1886915;75;26220;-92
2022/10/11 06:19:06;;;;;;;1.60;1.40;;;;;;;;;;1902509;75;26264;-93
2022/10/11 06:21:34;;;;;;;3.42;1.00;;;;;;;;;;1883687;75;26433;-93
2022/10/11 06:24:01;;;;;;;5.08;1.00;;;;;;;;;;1885913;75;26202;-91
2022/10/11 06:26:29;;;;;;;3.47;1.00;;;;;;;;;;1889573;75;26226;-93
2022/10/11 06:28:57;;;;;;;1.07;0.95;;;;;;;;;;1881079;75;26340;-93
2022/10/11 06:31:24;;;;;;;4.92;1.40;;;;;;;;;;1857619;76;26276;-93
2022/10/11 06:33:52;;;;;;;1.92;0.90;;;;;;;;;;1851640;76;29529;-90
2022/10/11 06:36:19;;;;;;;1.85;0.75;;;;;;;;;;1875703;74;26636;-91
2022/10/11 06:38:46;;;;;;;1.92;0.88;;;;;;;;;;1879016;76;26265;-89
2022/10/11 06:41:18;;;;;;;0.90;0.82;;;;;;;;;;1885739;76;26296;-91
2022/10/11 06:43:48;;;;;;;1.65;0.75;;;;;;;;;;1873703;76;26356;-92
2022/10/11 06:46:15;;;;;;;0.80;0.80;;;;;;;;;;1881792;76;26351;-96
2022/10/11 06:48:43;;;;;;;0.72;0.72;;;;;;;;;;1878388;76;26227;-95
2022/10/11 06:51:11;;;;;;;0.68;0.68;;;;;;;;;;1888366;76;26295;-93
2022/10/11 06:53:38;;;;;;;0.80;0.80;;;;;;;;;;1865994;76;26265;-92
2022/10/11 06:56:07;;;;;;;1.70;0.80;;;;;;;;;;1881362;76;26283;-91
2022/10/11 06:58:34;;;;;;;2.45;0.75;;;;;;;;;;1890363;76;26671;-95
2022/10/11 07:01:03;;;;;;;3.85;0.80;;;;;;;;;;1891289;76;26270;-93
2022/10/11 07:03:30;;;;;;;1.35;0.62;;;;;;;;;;1871454;76;26294;-93
2022/10/11 07:06:11;;;;;;;0.45;0.45;;;;;;;;;;1889076;76;26768;-91
2022/10/11 07:08:38;;;;;;;0.98;0.70;;;;;;;;;;1891595;76;26240;-96
2022/10/11 07:11:07;;;;;;;0.62;0.62;;;;;;;;;;1873071;76;26301;-96
2022/10/11 07:13:34;;;;;;;0.55;0.55;;;;;;;;;;1874864;76;26239;-95
2022/10/11 07:16:02;;;;;;;2.37;0.50;;;;;;;;;;1870919;76;26306;-93
2022/10/11 07:18:29;;;;;;;2.33;0.60;;;;;;;;;;1858277;76;28185;-90
2022/10/11 07:20:57;;;;;;;0.65;0.50;;;;;;;;;;1882818;76;26268;-92
2022/10/11 07:23:24;;;;;;;0.50;0.50;;;;;;;;;;1855310;76;26289;-92
2022/10/11 07:25:53;;;;;;;0.40;0.40;;;;;;;;;;1887605;76;26243;-91
2022/10/11 07:28:21;;;;;;;1.57;0.55;;;;;;;;;;1868230;76;26727;-91
2022/10/11 07:30:48;;;;;;;0.45;0.45;;;;;;;;;;1883213;75;26649;-91
2022/10/11 07:33:16;;;;;;;0.42;0.42;;;;;;;;;;1892135;75;26280;-92
2022/10/11 07:35:43;;;;;;;0.40;0.40;;;;;;;;;;1881880;75;26177;-92
2022/10/11 07:38:11;;;;;;;0.40;0.40;;;;;;;;;;1887632;76;26252;-92
2022/10/11 07:40:42;;;;;;;0.40;0.40;;;;;;;;;;1876939;76;26290;-91
2022/10/11 07:43:10;;;;;;;0.50;0.50;;;;;;;;;;1875400;76;26313;-90
2022/10/11 07:45:38;;;;;;;0.42;0.42;;;;;;;;;;1860529;77;26285;-89
2022/10/11 07:48:05;;;;;;;0.42;0.42;;;;;;;;;;1877781;76;26263;-94
2022/10/11 07:50:33;;;;;;;0.40;0.30;;;;;;;;;;1871972;76;26786;-89
2022/10/11 07:53:01;;;;;;;0.57;0.40;;;;;;;;;;1854884;76;26296;-90
2022/10/11 07:55:30;;;;;;;0.20;0.20;;;;;;;;;;1888481;75;26759;-88
2022/10/11 07:57:57;;;;;;;0.50;0.50;;;;;;;;;;1891389;75;26310;-92
2022/10/11 08:00:25;;;;;;;0.50;0.50;;;;;;;;;;1892291;75;26285;-92
2022/10/11 08:02:52;;;;;;;1.00;0.40;;;;;;;;;;1880640;76;22962;-90
2022/10/11 08:05:19;;;;;;;0.40;0.40;;;;;;;;;;1871338;75;26267;-92
2022/10/11 08:07:47;;;;;;;0.88;0.40;;;;;;;;;;1882531;75;26222;-93
2022/10/11 08:10:14;;;;;;;0.30;0.30;;;;;;;;;;1891311;75;26308;-96
2022/10/11 08:12:42;;;;;;;0.20;0.20;;;;;;;;;;1882521;75;26283;-94
2022/10/11 08:15:09;;;;;;;0.35;0.35;;;;;;;;;;1891654;76;26240;-93
2022/10/11 08:17:37;;;;;;;0.47;0.47;;;;;;;;;;1885566;76;26271;-92
2022/10/11 08:20:30;;;;;;;0.20;0.20;;;;;;;;;;1886094;76;26255;-92
2022/10/11 08:22:57;;;;;;;0.42;0.42;;;;;;;;;;1878994;75;26897;-93
2022/10/11 08:25:24;;;;;;;0.17;0.17;;;;;;;;;;1883425;75;26829;-89
2022/10/11 08:27:52;;;;;;;0.30;0.30;;;;;;;;;;1887098;75;26301;-93
2022/10/11 08:30:19;;;;;;;0.40;0.40;;;;;;;;;;1879613;76;26263;-94
2022/10/11 08:32:46;;;;;;;0.30;0.30;;;;;;;;;;1880073;75;26301;-92
2022/10/11 08:35:13;;;;;;;0.20;0.20;;;;;;;;;;1887161;75;26220;-93
2022/10/11 08:37:41;;;;;;;0.35;0.35;;;;;;;;;;1896845;75;26241;-92
2022/10/11 08:40:09;;;;;;;0.47;0.47;;;;;;;;;;1882996;75;26313;-91
2022/10/11 08:42:44;;;;;;;0.30;0.30;;;;;;;;;;1893072;75;26248;-91
2022/10/11 08:45:13;;;;;;;7.45;0.65;;;;;;;;;;1892443;75;26840;-93
2022/10/11 08:47:42;;;;;;;0.30;0.30;;;;;;;;;;1896790;75;26676;-93
2022/10/11 08:50:11;;;;;;;0.40;0.40;;;;;;;;;;1898543;75;26234;-92
2022/10/11 08:52:54;;;;;;;0.30;0.30;;;;;;;;;;1884202;75;26283;-92
2022/10/11 08:55:36;;;;;;;0.40;0.40;;;;;;;;;;1903470;75;24094;-94
2022/10/11 08:58:03;;;;;;;0.40;0.40;;;;;;;;;;1902284;75;26754;-92
2022/10/11 09:00:32;;;;;;;0.30;0.30;;;;;;;;;;1875596;75;27196;-92
2022/10/11 09:03:04;;;;;;;0.35;0.35;;;;;;;;;;1875882;75;26821;-90
2022/10/11 09:05:32;;;;;;;0.40;0.40;;;;;;;;;;1889035;75;26302;-91
2022/10/11 09:08:18;;;;;;;0.50;0.50;;;;;;;;;;1899987;75;26349;-92
2022/10/11 09:10:47;;;;;;;0.57;0.35;;;;;;;;;;1888548;75;27068;-88
2022/10/11 09:13:18;;;;;;;0.28;0.28;;;;;;;;;;1902982;75;26232;-91
2022/10/11 09:15:47;;;;;;;0.30;0.30;;;;;;;;;;1905823;75;26263;-93
2022/10/11 09:18:31;;;;;;;0.40;0.40;;;;;;;;;;1898447;75;26743;-92
2022/10/11 09:21:02;;;;;;;0.30;0.30;;;;;;;;;;1893259;75;26279;-89
2022/10/11 09:23:48;;;;;;;0.40;0.40;;;;;;;;;;1889663;75;26311;-92
2022/10/11 09:26:20;;;;;;;0.30;0.30;;;;;;;;;;1881300;75;26338;-92
2022/10/11 09:28:58;;;;;;;0.25;0.25;;;;;;;;;;1876473;75;26270;-91
2022/10/11 09:31:25;;;;;;;0.25;0.25;;;;;;;;;;1896852;75;26329;-93
2022/10/11 09:33:52;;;;;;;0.40;0.40;;;;;;;;;;1906969;75;26325;-93
2022/10/11 09:36:27;;;;;;;0.53;0.45;;;;;;;;;;1899357;75;26357;-90
2022/10/11 09:38:56;;;;;;;0.40;0.40;;;;;;;;;;1892869;75;26269;-89
2022/10/11 09:41:24;;;;;;;0.33;0.33;;;;;;;;;;1903638;75;26263;-89
2022/10/11 09:43:52;;;;;;;0.28;0.28;;;;;;;;;;1904959;75;26319;-92
2022/10/11 09:46:21;;;;;;;0.40;0.40;;;;;;;;;;1906947;75;26264;-93
2022/10/11 09:48:48;;;;;;;0.20;0.20;;;;;;;;;;1905905;75;26235;-89
2022/10/11 09:51:17;;;;;;;0.20;0.20;;;;;;;;;;1906231;75;26263;-91
2022/10/11 09:53:58;;;;;;;0.30;0.30;;;;;;;;;;1885213;75;26255;-91
2022/10/11 09:56:27;;;;;;;0.50;0.30;;;;;;;;;;1900700;75;26361;-91
2022/10/11 09:59:07;;;;;;;0.37;0.30;;;;;;;;;;1878574;75;26299;-91
2022/10/11 10:01:35;;;;;;;0.20;0.20;;;;;;;;;;1816319;75;26257;-91
2022/10/11 10:04:10;;;;;;;0.40;0.40;;;;;;;;;;1899484;75;26298;-91
2022/10/11 10:06:38;;;;;;;0.47;0.47;;;;;;;;;;1893699;75;26240;-88
2022/10/11 10:09:23;;;;;;;0.20;0.20;;;;;;;;;;1899111;75;26248;-89
2022/10/11 10:11:50;;;;;;;1.00;0.20;;;;;;;;;;1895651;75;26238;-92
2022/10/11 10:14:25;;;;;;;0.70;0.30;;;;;;;;;;1877957;75;26655;-94
2022/10/11 10:16:54;;;;;;;0.30;0.30;;;;;;;;;;1904954;75;26219;-91
2022/10/11 10:19:22;;;;;;;0.20;0.20;;;;;;;;;;1874898;75;28735;-90
2022/10/11 10:21:50;;;;;;;0.30;0.30;;;;;;;;;;1885306;75;26283;-91
2022/10/11 10:24:34;;;;;;;0.23;0.23;;;;;;;;;;1903285;75;26388;-90
2022/10/11 10:27:06;;;;;;;0.20;0.20;;;;;;;;;;1903743;75;26326;-89
2022/10/11 10:29:34;;;;;;;0.10;0.10;;;;;;;;;;1878843;75;27241;-90
2022/10/11 10:32:09;;;;;;;0.50;0.45;;;;;;;;;;1902706;75;26274;-92
2022/10/11 10:34:38;;;;;;;1.67;0.40;;;;;;;;;;1894698;74;26243;-92
2022/10/11 10:37:09;;;;;;;1.42;0.40;;;;;;;;;;1903271;75;26304;-92
2022/10/11 10:39:38;;;;;;;0.50;0.50;;;;;;;;;;1903272;75;26837;-90
2022/10/11 10:42:07;;;;;;;0.82;0.45;;;;;;;;;;1903413;75;26642;-92
2022/10/11 10:44:34;;;;;;;2.47;0.60;;;;;;;;;;1897269;75;26743;-93
2022/10/11 10:47:09;;;;;;;0.40;0.40;;;;;;;;;;1902551;75;27313;-95
2022/10/11 10:49:38;;;;;;;1.87;0.50;;;;;;;;;;1883536;75;26865;-91
2022/10/11 10:52:07;;;;;;;0.50;0.50;;;;;;;;;;1883017;75;26780;-93
2022/10/11 10:54:44;;;;;;;0.55;0.40;;;;;;;;;;1881658;75;26296;-92
2022/10/11 10:57:16;;;;;;;1.17;0.40;;;;;;;;;;1889844;75;26254;-92
2022/10/11 10:59:48;;;;;;;1.70;0.55;;;;;;;;;;1871611;75;26247;-92
2022/10/11 11:02:22;;;;;;;0.75;0.33;;;;;;;;;;1878876;75;26197;-92
2022/10/11 11:05:00;;;;;;;0.40;0.40;;;;;;;;;;1880301;75;26681;-91
2022/10/11 11:07:32;;;;;;;0.30;0.30;;;;;;;;;;1900039;75;26703;-92
2022/10/11 11:10:01;;;;;;;0.50;0.40;;;;;;;;;;1885233;75;26199;-92
2022/10/11 11:12:38;;;;;;;0.37;0.37;;;;;;;;;;1904726;75;26242;-92
2022/10/11 11:15:13;;;;;;;0.75;0.42;;;;;;;;;;1887877;75;26227;-92
2022/10/11 11:17:42;;;;;;;0.37;0.37;;;;;;;;;;1900952;74;26223;-90
2022/10/11 11:20:16;;;;;;;0.70;0.40;;;;;;;;;;1895648;75;26281;-92
2022/10/11 11:22:54;;;;;;;0.30;0.30;;;;;;;;;;1903943;75;26301;-92
2022/10/11 11:25:26;;;;;;;0.40;0.35;;;;;;;;;;1903133;75;26233;-92
2022/10/11 11:28:07;;;;;;;0.50;0.50;;;;;;;;;;1840212;75;26273;-92
2022/10/11 11:30:41;;;;;;;0.33;0.33;;;;;;;;;;1879929;75;26239;-92
2022/10/11 11:33:10;;;;;;;1.10;0.40;;;;;;;;;;1895055;75;26227;-92
2022/10/11 11:35:39;;;;;;;0.20;0.20;;;;;;;;;;1902134;75;26707;-92
2022/10/11 11:38:11;;;;;;;0.28;0.28;;;;;;;;;;1887424;75;26639;-94
2022/10/11 11:41:00;;;;;;;0.30;0.20;;;;;;;;;;1884095;75;26235;-92
2022/10/11 11:43:32;;;;;;;0.10;0.10;;;;;;;;;;1900285;75;26915;-93
2022/10/11 11:46:00;;;;;;;0.30;0.30;;;;;;;;;;1903746;75;26952;-92
2022/10/11 11:48:28;;;;;;;0.65;0.20;;;;;;;;;;1903287;75;26812;-92
2022/10/11 11:50:56;;;;;;;0.20;0.20;;;;;;;;;;1888334;75;27423;-91
2022/10/11 11:53:42;;;;;;;0.20;0.20;;;;;;;;;;1875444;75;26298;-91
2022/10/11 11:56:11;;;;;;;0.15;0.15;;;;;;;;;;1896198;75;26815;-92
2022/10/11 11:58:43;;;;;;;0.30;0.30;;;;;;;;;;1902900;75;25714;-92
2022/10/11 12:01:28;;;;;;;0.30;0.30;;;;;;;;;;1893521;75;26304;-92
2022/10/11 12:03:57;;;;;;;0.30;0.30;;;;;;;;;;1895551;75;26266;-93
2022/10/11 12:06:32;;;;;;;0.23;0.23;;;;;;;;;;1893285;75;26266;-93
2022/10/11 12:09:04;;;;;;;0.50;0.40;;;;;;;;;;1890983;75;26648;-94
2022/10/11 12:11:38;;;;;;;0.20;0.20;;;;;;;;;;1879231;75;26300;-93
2022/10/11 12:14:10;;;;;;;0.20;0.20;;;;;;;;;;1901903;75;26333;-91
2022/10/11 12:16:39;;;;;;;0.37;0.37;;;;;;;;;;1895207;75;26738;-91
2022/10/11 12:19:08;;;;;;;0.20;0.20;;;;;;;;;;1887473;75;26912;-92
2022/10/11 12:21:36;;;;;;;0.13;0.13;;;;;;;;;;1887785;75;26253;-91
2022/10/11 12:24:14;;;;;;;0.20;0.20;;;;;;;;;;1890295;75;26662;-91
2022/10/11 12:26:43;;;;;;;0.20;0.20;;;;;;;;;;1897688;75;26289;-92
2022/10/11 12:29:18;;;;;;;0.20;0.20;;;;;;;;;;1901005;75;26250;-91
2022/10/11 12:31:47;;;;;;;0.20;0.20;;;;;;;;;;1900734;75;26234;-91
2022/10/11 12:34:18;;;;;;;0.30;0.30;;;;;;;;;;1891111;74;26494;-92
2022/10/11 12:36:47;;;;;;;0.20;0.20;;;;;;;;;;1876937;75;26341;-92
2022/10/11 12:39:22;;;;;;;0.30;0.30;;;;;;;;;;1905437;75;26356;-91
2022/10/11 12:41:52;;;;;;;0.30;0.30;;;;;;;;;;1909615;74;26749;-91
2022/10/11 12:44:25;;;;;;;0.10;0.10;;;;;;;;;;1898301;75;26333;-91
2022/10/11 12:46:54;;;;;;;0.30;0.30;;;;;;;;;;1898522;75;26261;-91
2022/10/11 12:49:31;;;;;;;0.30;0.30;;;;;;;;;;1910945;75;26304;-93
2022/10/11 12:52:07;;;;;;;0.50;0.50;;;;;;;;;;1899048;75;26257;-92
2022/10/11 12:54:36;;;;;;;0.10;0.10;;;;;;;;;;1909990;75;26783;-92
2022/10/11 12:57:10;;;;;;;0.13;0.13;;;;;;;;;;1904738;75;26769;-92
2022/10/11 12:59:39;;;;;;;0.20;0.20;;;;;;;;;;1905324;75;26238;-93
2022/10/11 13:02:08;;;;;;;0.17;0.17;;;;;;;;;;1909467;75;26298;-93
2022/10/11 13:04:35;;;;;;;0.23;0.23;;;;;;;;;;1918651;74;26263;-93
2022/10/11 13:07:08;;;;;;;0.10;0.10;;;;;;;;;;1915971;75;26731;-93
2022/10/11 13:09:40;;;;;;;0.15;0.10;;;;;;;;;;1912151;75;26262;-92
2022/10/11 13:12:09;;;;;;;0.30;0.30;;;;;;;;;;1914493;75;26372;-94
2022/10/11 13:14:37;;;;;;;0.20;0.20;;;;;;;;;;1891428;75;26340;-93
2022/10/11 13:17:06;;;;;;;0.40;0.40;;;;;;;;;;1924407;74;26215;-92
2022/10/11 13:19:35;;;;;;;0.25;0.25;;;;;;;;;;1912829;74;27748;-92
2022/10/11 13:22:04;;;;;;;0.10;0.10;;;;;;;;;;1910750;75;26744;-92
2022/10/11 13:24:35;;;;;;;0.20;0.20;;;;;;;;;;1885579;75;26754;-91
2022/10/11 13:27:04;;;;;;;0.28;0.28;;;;;;;;;;1902687;75;26315;-94
2022/10/11 13:29:36;;;;;;;0.10;0.10;;;;;;;;;;1910844;75;26309;-91
2022/10/11 13:32:04;;;;;;;0.20;0.20;;;;;;;;;;1910912;75;26226;-90
2022/10/11 13:34:33;;;;;;;0.10;0.10;;;;;;;;;;1866074;75;26340;-93
2022/10/11 13:37:01;;;;;;;0.20;0.20;;;;;;;;;;1855104;77;26275;-91
2022/10/11 13:39:30;;;;;;;0.20;0.20;;;;;;;;;;1868886;77;26277;-91
2022/10/11 13:41:58;;;;;;;0.20;0.20;;;;;;;;;;1868863;75;26255;-91
2022/10/11 13:44:25;;;;;;;0.17;0.17;;;;;;;;;;1873015;75;26309;-91
2022/10/11 13:46:53;;;;;;;0.20;0.20;;;;;;;;;;1858578;75;26747;-92
2022/10/11 13:49:38;;;;;;;0.10;0.10;;;;;;;;;;1868849;76;26370;-93
2022/10/11 13:52:07;;;;;;;0.10;0.10;;;;;;;;;;1858634;75;26307;-94
2022/10/11 13:54:54;;;;;;;0.17;0.17;;;;;;;;;;1859069;75;26735;-92
2022/10/11 13:57:23;;;;;;;0.05;0.05;;;;;;;;;;1861581;77;26334;-93
2022/10/11 13:59:50;;;;;;;0.20;0.20;;;;;;;;;;1872733;75;26263;-93
2022/10/11 14:02:19;;;;;;;0.20;0.20;;;;;;;;;;1866664;75;26248;-92
2022/10/11 14:04:47;;;;;;;0.30;0.30;;;;;;;;;;1868859;75;26672;-93
2022/10/11 14:07:34;;;;;;;0.20;0.20;;;;;;;;;;1866175;75;26765;-93
2022/10/11 14:10:02;;;;;;;0.20;0.20;;;;;;;;;;1868378;75;26806;-93
2022/10/11 14:12:31;;;;;;;0.20;0.20;;;;;;;;;;1851086;75;26350;-93
2022/10/11 14:14:59;;;;;;;0.10;0.10;;;;;;;;;;1846066;75;26317;-92
2022/10/11 14:17:40;;;;;;;0.20;0.20;;;;;;;;;;1876513;75;26357;-93
2022/10/11 14:20:09;;;;;;;0.13;0.13;;;;;;;;;;1863870;75;26270;-91
2022/10/11 14:22:36;;;;;;;0.20;0.20;;;;;;;;;;1867596;75;26311;-93
2022/10/11 14:25:04;;;;;;;0.10;0.10;;;;;;;;;;1868242;75;26790;-92
2022/10/11 14:27:31;;;;;;;0.10;0.10;;;;;;;;;;1864354;76;26275;-92
2022/10/11 14:29:58;;;;;;;0.20;0.20;;;;;;;;;;1870104;75;26279;-92
2022/10/11 14:32:28;;;;;;;0.20;0.20;;;;;;;;;;1867267;75;26728;-93
2022/10/11 14:34:55;;;;;;;0.20;0.10;;;;;;;;;;1869865;75;26293;-93
2022/10/11 14:37:24;;;;;;;0.20;0.20;;;;;;;;;;1867845;75;26340;-93
2022/10/11 14:39:51;;;;;;;0.10;0.10;;;;;;;;;;1871973;75;26731;-89
2022/10/11 14:42:19;;;;;;;0.20;0.20;;;;;;;;;;1878794;76;26243;-93
2022/10/11 14:44:46;;;;;;;0.20;0.20;;;;;;;;;;1868739;75;26242;-91
2022/10/11 14:47:14;;;;;;;0.80;0.37;;;;;;;;;;1867153;76;26354;-91
2022/10/11 14:49:42;;;;;;;0.47;0.25;;;;;;;;;;1871376;76;26320;-94
2022/10/11 14:52:10;;;;;;;0.25;0.13;;;;;;;;;;1874871;75;26302;-92
2022/10/11 14:54:38;;;;;;;0.13;0.13;;;;;;;;;;1870426;76;26317;-92
2022/10/11 14:57:05;;;;;;;2.55;0.20;;;;;;;;;;1868159;76;26312;-92